Key West NAF, FL

11:30 AM EDT on July 28, 2014 (GMT -0400)
Dade County-Homestead Regional (KHST) Elev 7 ft | 25.49 °N, 80.38 °W | Change Station

Current weather conditions updated 32 minutes ago

Clear
Clear
88 °F
Feels Like 94 °F
N
1
Wind Variable Wind from Variable

Today is forecast to be nearly the same temperature as yesterday.

Today
High -- | Low -- °F
--% Chance of Precip.
Yesterday
High -- | Low -- °F
Precip. -- in
6:53 AM 8:13 PM
Waxing Crescent, 3% visible
Pressure 30.10 in
Visibility 10.0 miles
Clouds Clear
Heat Index 94 °F
Dew Point 72 °F
Humidity 58%
Rainfall 0.00 in
Snow Depth Not available.
UV 11 out of 12
Pollen 4.00 out of 12
Air Quality Not available.
Flu Activity Not available.
METAR KHST 281458Z VRB01KT 10SM CLR 31/22 A3010 RMK 51003 SLPNO

More Conditions Fewer Conditions

Pressure 30.10 in
Visibility 10.0 miles
Clouds Clear
Heat Index 94 °F
Dew Point 72 °F
Humidity 58%
Rainfall 0.00 in
Snow Depth Not available.
UV 11 out of 12
Pollen 4.00 out of 12
Air Quality Not available.
Flu Activity Not available.
METAR KHST 281458Z VRB01KT 10SM CLR 31/22 A3010 RMK 51003 SLPNO

More Conditions Fewer Conditions

10-Day Weather Forecast

Almanac

Astronomy

Jul. 28, 2014 Rise Set
Actual Time 6:53 AM EDT 8:13 PM EDT
Civil Twilight 6:28 AM EDT 8:37 PM EDT
Nautical Twilight 5:59 AM EDT 9:06 PM EDT
Astronomical Twilight 5:28 AM EDT 9:37 PM EDT
Moon 8:17 AM EDT 9:12 PM EDT
Length of Visible Light 14h 09m
Length of Day
13h 19m
Tomorrow will be 1m 0s shorter.
Waxing Crescent, 3% of the Moon is Illuminated
Today
Waxing Crescent
Aug 3
First Quarter
Aug 10
Full
Aug 17
Last Quarter
Aug 25
New

Today's Extremes

State Highs State Lows

Community

WunderPhotos

Upload Photos

1,738,388 photos uploaded!

Nearby

Snow Depth

Station Depth Elevation
No new snow has been reported.

Earthquake Activity

City Distance Mag. Time & Date
No recent earthquake activity has been reported nearby.
Minimum magnitude displayed is 2.5.

Coastal Water Temperatures

Place Temperature
No Stations Reporting

Nearby Weather Stations

Station Location Temp. Heat Index Dew Point Humidity Wind Precip. Elev Updated Type
Big Coppitt Key Gulfside, Key West, FL 87.1 °F 101 °F 79 °F 76% ENE  at  4.7 mph - / hr 31 ft 11:15 AM EDT Normal
Key West, FL 87.7 °F 103 °F 79 °F 76% NNW  at  0.0 mph 0.00 in / hr 6 ft 11:28 AM EDT Normal
Cudjoe Key, FL 86.2 °F 99 °F 78 °F 78% ENE  at  2.0 mph 0.00 in / hr 16 ft 11:30 AM EDT Rapid Fire
MARITIME , Key West, FL 85 °F 82 °F - - SE  at  3 mph 0.00 in / hr 0 ft 9:50 AM EDT MADIS
Breezeswept Estates - Bird Lake - Ramrod, Ramrod Key, FL 84.2 °F 95 °F 78 °F 82% NE  at  7.7 mph 0.02 in / hr 25 ft 11:30 AM EDT Rapid Fire
RAWS NATIONAL KEY DEER NWR FL, Summerland Key, FL 90 °F 101 °F 76 °F 63% ENE  at  4 mph 0.00 in / hr 9 ft 10:38 AM EDT MADIS

Show More Stations Show Fewer Stations